createdAt,value
2023-06-04T00:01:32.655Z,31.70
2023-06-04T00:04:01.171Z,31.60
2023-06-04T00:06:29.631Z,31.44
2023-06-04T00:08:58.236Z,31.52
2023-06-04T00:11:27.747Z,31.72
2023-06-04T00:13:56.542Z,31.63
2023-06-04T00:16:26.388Z,31.52
2023-06-04T00:18:55.010Z,31.62
2023-06-04T00:21:24.373Z,31.62
2023-06-04T00:23:52.839Z,31.74
2023-06-04T00:26:21.656Z,31.63
2023-06-04T00:28:50.126Z,31.43
2023-06-04T00:31:19.125Z,31.36
2023-06-04T00:33:49.465Z,31.25
2023-06-04T00:36:18.108Z,31.83
2023-06-04T00:38:46.716Z,31.72
2023-06-04T00:41:15.114Z,31.85
2023-06-04T00:43:47.107Z,31.51
2023-06-04T00:46:19.511Z,31.76
2023-06-04T00:48:49.498Z,31.95
2023-06-04T00:51:17.998Z,31.71
2023-06-04T00:53:46.415Z,31.66
2023-06-04T00:56:15.264Z,32.02
2023-06-04T00:58:44.104Z,31.92
2023-06-04T01:01:17.619Z,31.95
2023-06-04T01:03:49.361Z,31.66
2023-06-04T01:06:23.995Z,31.97
2023-06-04T01:08:55.581Z,32.13
2023-06-04T01:11:37.213Z,31.77
2023-06-04T01:14:06.312Z,32.05
2023-06-04T01:16:37.665Z,32.10
2023-06-04T01:19:10.043Z,32.01
2023-06-04T01:21:40.097Z,32.11
2023-06-04T01:24:09.387Z,32.15
2023-06-04T01:26:38.822Z,31.98
2023-06-04T01:29:08.591Z,32.00
2023-06-04T01:31:37.178Z,31.89
2023-06-04T01:34:09.888Z,32.07
2023-06-04T01:36:38.476Z,31.80
2023-06-04T01:39:06.844Z,32.12
2023-06-04T01:41:35.477Z,32.15
2023-06-04T01:44:03.855Z,31.92
2023-06-04T01:46:32.525Z,32.29
2023-06-04T01:49:01.003Z,32.00
2023-06-04T01:51:31.387Z,32.42
2023-06-04T01:53:59.936Z,32.11
2023-06-04T01:56:29.030Z,32.02
2023-06-04T01:58:57.764Z,31.96
2023-06-04T02:01:26.184Z,32.34
2023-06-04T02:03:54.633Z,31.84
2023-06-04T02:06:23.296Z,32.00
2023-06-04T02:08:55.311Z,32.04
2023-06-04T02:11:24.291Z,32.25
2023-06-04T02:13:52.785Z,31.98
2023-06-04T02:16:21.521Z,32.08
2023-06-04T02:18:50.085Z,32.30
2023-06-04T02:21:18.700Z,32.33
2023-06-04T02:23:47.282Z,32.28
2023-06-04T02:26:17.102Z,32.17
2023-06-04T02:28:45.595Z,32.08
2023-06-04T02:31:14.014Z,32.20
2023-06-04T02:33:42.594Z,32.55
2023-06-04T02:36:11.588Z,32.33
2023-06-04T02:38:40.045Z,32.11
2023-06-04T02:41:08.978Z,32.20
2023-06-04T02:43:40.726Z,32.39
2023-06-04T02:46:09.518Z,32.55
2023-06-04T02:48:38.014Z,32.13
2023-06-04T02:51:07.202Z,32.48
2023-06-04T02:53:35.872Z,32.52
2023-06-04T02:56:04.286Z,32.60
2023-06-04T02:58:32.898Z,32.25
2023-06-04T03:01:02.722Z,32.46
2023-06-04T03:03:32.643Z,32.38
2023-06-04T03:06:03.719Z,32.68
2023-06-04T03:08:32.096Z,32.59
2023-06-04T03:11:00.683Z,32.48
2023-06-04T03:13:29.136Z,32.28
2023-06-04T03:15:58.392Z,32.39
2023-06-04T03:18:28.157Z,32.52
2023-06-04T03:20:56.963Z,32.31
2023-06-04T03:23:25.458Z,32.68
2023-06-04T03:25:54.148Z,32.61
2023-06-04T03:28:22.603Z,32.47
2023-06-04T03:30:51.014Z,32.74
2023-06-04T03:33:21.223Z,32.52
2023-06-04T03:35:51.907Z,32.56
2023-06-04T03:38:20.650Z,32.56
2023-06-04T03:40:49.120Z,32.34
2023-06-04T03:43:17.569Z,32.40
2023-06-04T03:45:46.163Z,32.43
2023-06-04T03:48:14.537Z,32.68
2023-06-04T03:50:43.892Z,32.64
2023-06-04T03:53:13.770Z,32.52
2023-06-04T03:55:42.147Z,32.43
2023-06-04T03:58:12.925Z,32.63
2023-06-04T04:00:41.363Z,32.39
2023-06-04T04:03:11.304Z,32.74
2023-06-04T04:05:39.934Z,32.80
2023-06-04T04:08:10.145Z,32.71
2023-06-04T04:10:40.050Z,32.68
2023-06-04T04:13:08.420Z,32.77
2023-06-04T04:15:37.365Z,32.57
2023-06-04T04:18:05.994Z,32.74
2023-06-04T04:20:34.421Z,32.56
2023-06-04T04:23:02.913Z,32.57
2023-06-04T04:25:33.665Z,32.80
2023-06-04T04:28:03.669Z,32.83
2023-06-04T04:30:34.703Z,32.61
2023-06-04T04:33:03.415Z,32.57
2023-06-04T04:35:33.768Z,32.86
2023-06-04T04:38:04.537Z,32.46
2023-06-04T04:40:33.167Z,32.63
2023-06-04T04:43:02.962Z,32.43
2023-06-04T04:45:31.450Z,32.53
2023-06-04T04:47:59.891Z,32.65
2023-06-04T04:50:28.520Z,32.59
2023-06-04T04:52:56.924Z,32.49
2023-06-04T04:55:25.668Z,32.63
2023-06-04T04:57:54.163Z,32.47
2023-06-04T05:00:23.922Z,32.45
2023-06-04T05:02:52.511Z,32.78
2023-06-04T05:05:20.991Z,32.82
2023-06-04T05:07:49.335Z,32.69
2023-06-04T05:10:18.516Z,32.51
2023-06-04T05:12:54.283Z,32.68
2023-06-04T05:15:25.867Z,32.47
2023-06-04T05:17:54.467Z,32.41
2023-06-04T05:20:23.923Z,32.56
2023-06-04T05:22:53.693Z,32.67
2023-06-04T05:25:22.720Z,32.50
2023-06-04T05:27:51.725Z,32.86
2023-06-04T05:30:20.230Z,32.92
2023-06-04T05:32:51.908Z,32.57
2023-06-04T05:35:20.719Z,32.98
2023-06-04T05:37:55.604Z,32.82
2023-06-04T05:40:24.133Z,32.75
2023-06-04T05:42:52.598Z,32.79
2023-06-04T05:45:21.110Z,32.78
2023-06-04T05:47:50.897Z,32.92
2023-06-04T05:50:19.516Z,33.01
2023-06-04T05:52:48.013Z,32.85
2023-06-04T05:55:17.901Z,32.99
2023-06-04T05:57:46.384Z,33.06
2023-06-04T06:00:15.878Z,32.76
2023-06-04T06:02:44.908Z,33.14
2023-06-04T06:05:14.820Z,33.08
2023-06-04T06:07:43.841Z,33.24
2023-06-04T06:10:13.341Z,32.81
2023-06-04T06:12:41.814Z,32.88
2023-06-04T06:15:13.837Z,33.04
2023-06-04T06:17:43.189Z,33.22
2023-06-04T06:20:18.877Z,33.37
2023-06-04T06:22:47.978Z,33.05
2023-06-04T06:25:17.110Z,33.05
2023-06-04T06:27:45.866Z,33.32
2023-06-04T06:30:16.695Z,33.00
2023-06-04T06:32:45.133Z,33.47
2023-06-04T06:35:15.090Z,33.11
2023-06-04T06:37:44.546Z,33.23
2023-06-04T06:40:13.797Z,33.12
2023-06-04T06:42:42.235Z,32.91
2023-06-04T06:45:12.140Z,33.06
2023-06-04T06:47:40.883Z,33.15
2023-06-04T06:50:12.071Z,33.17
2023-06-04T06:52:41.983Z,33.15
2023-06-04T06:55:11.032Z,33.10
2023-06-04T06:57:39.632Z,32.84
2023-06-04T07:00:11.129Z,32.82
2023-06-04T07:02:39.631Z,33.29
2023-06-04T07:05:08.790Z,33.62
2023-06-04T07:07:37.757Z,33.44
2023-06-04T07:10:08.617Z,33.38
2023-06-04T07:12:37.171Z,33.65
2023-06-04T07:15:07.232Z,33.72
2023-06-04T07:17:35.767Z,33.98
2023-06-04T07:20:05.156Z,33.55
2023-06-04T07:22:33.672Z,33.80
2023-06-04T07:25:02.535Z,34.05
2023-06-04T07:27:32.980Z,33.54
2023-06-04T07:30:01.585Z,33.44
2023-06-04T07:32:30.152Z,33.09
2023-06-04T07:34:58.596Z,33.35
2023-06-04T07:37:27.208Z,33.42
2023-06-04T07:39:55.655Z,33.39
2023-06-04T07:42:24.248Z,33.70
2023-06-04T07:44:53.980Z,33.88
2023-06-04T07:47:22.904Z,33.41
2023-06-04T07:50:01.886Z,32.93
2023-06-04T07:52:31.366Z,33.42
2023-06-04T07:54:59.794Z,33.02
2023-06-04T07:57:28.213Z,32.87
2023-06-04T07:59:58.158Z,32.57
2023-06-04T08:02:26.784Z,33.28
2023-06-04T08:04:55.579Z,32.95
2023-06-04T08:07:24.189Z,32.64
2023-06-04T08:09:53.038Z,33.09
2023-06-04T08:12:21.736Z,33.00
2023-06-04T08:14:51.327Z,33.15
2023-06-04T08:17:21.254Z,32.06
2023-06-04T08:19:49.778Z,31.28
2023-06-04T08:22:18.319Z,30.49
2023-06-04T08:24:47.194Z,28.25
2023-06-04T08:27:15.738Z,29.02
2023-06-04T08:29:44.273Z,28.24
2023-06-04T08:32:13.122Z,28.57
2023-06-04T08:34:43.065Z,26.02
2023-06-04T08:37:11.671Z,26.70
2023-06-04T08:39:40.190Z,25.37
2023-06-04T08:42:09.780Z,26.17
2023-06-04T08:44:38.273Z,28.98
2023-06-04T08:47:08.094Z,27.34
2023-06-04T08:49:38.083Z,24.94
2023-06-04T08:52:08.276Z,26.14
2023-06-04T08:54:37.005Z,26.20
2023-06-04T08:57:06.100Z,26.72
2023-06-04T08:59:34.577Z,27.85
2023-06-04T09:02:03.261Z,26.98
2023-06-04T09:04:31.930Z,27.30
2023-06-04T09:07:02.519Z,27.76
2023-06-04T09:09:32.617Z,28.75
2023-06-04T09:12:01.223Z,28.75
2023-06-04T09:14:29.852Z,28.58
2023-06-04T09:16:59.953Z,27.80
2023-06-04T09:19:28.518Z,28.37
2023-06-04T09:21:58.551Z,28.01
2023-06-04T09:24:28.059Z,28.66
2023-06-04T09:26:58.114Z,28.36
2023-06-04T09:29:26.701Z,28.11
2023-06-04T09:32:00.602Z,26.47
2023-06-04T09:34:32.239Z,27.74
2023-06-04T09:37:01.098Z,28.48
2023-06-04T09:39:29.797Z,27.93
2023-06-04T09:42:03.013Z,27.77
2023-06-04T09:44:31.607Z,28.35
2023-06-04T09:47:00.497Z,27.95
2023-06-04T09:49:30.483Z,27.99
2023-06-04T09:51:59.233Z,27.90
2023-06-04T09:54:38.950Z,28.32
2023-06-04T09:57:18.108Z,28.61
2023-06-04T09:59:47.859Z,27.47
2023-06-04T10:02:16.348Z,27.53
2023-06-04T10:04:44.834Z,27.69
2023-06-04T10:07:14.627Z,26.37
2023-06-04T10:09:46.840Z,27.56
2023-06-04T10:12:18.025Z,27.45
2023-06-04T10:14:57.103Z,28.60
2023-06-04T10:17:26.865Z,27.84
2023-06-04T10:19:55.573Z,28.08
2023-06-04T10:22:24.212Z,28.56
2023-06-04T10:24:52.665Z,28.89
2023-06-04T10:27:23.242Z,28.55
2023-06-04T10:29:53.754Z,28.57
2023-06-04T10:32:22.264Z,29.05
2023-06-04T10:34:51.127Z,29.07
2023-06-04T10:37:23.027Z,29.06
2023-06-04T10:39:55.286Z,29.22
2023-06-04T10:42:25.217Z,28.84
2023-06-04T10:44:57.362Z,29.26
2023-06-04T10:47:27.429Z,29.37
2023-06-04T10:49:56.420Z,29.29
2023-06-04T10:52:25.039Z,29.51
2023-06-04T10:54:54.674Z,29.29
2023-06-04T10:57:24.625Z,29.54
2023-06-04T10:59:56.927Z,29.65
2023-06-04T11:02:25.506Z,29.43
2023-06-04T11:05:07.341Z,29.60
2023-06-04T11:07:46.337Z,29.73
2023-06-04T11:10:15.433Z,29.54
2023-06-04T11:12:46.277Z,29.85
2023-06-04T11:15:14.944Z,29.88
2023-06-04T11:18:01.894Z,30.12
2023-06-04T11:20:30.644Z,29.71
2023-06-04T11:23:00.962Z,29.94
2023-06-04T11:25:30.279Z,29.79
2023-06-04T11:28:00.374Z,30.04
2023-06-04T11:30:28.894Z,29.86
2023-06-04T11:33:04.968Z,29.93
2023-06-04T11:35:33.644Z,30.15
2023-06-04T11:38:02.028Z,30.23
2023-06-04T11:40:31.901Z,30.09
2023-06-04T11:43:01.656Z,29.92
2023-06-04T11:45:31.480Z,29.61
2023-06-04T11:48:00.054Z,30.33
2023-06-04T11:50:30.889Z,30.11
2023-06-04T11:52:59.321Z,28.94
2023-06-04T11:55:27.783Z,28.91
2023-06-04T11:57:56.440Z,29.45
2023-06-04T12:00:26.374Z,29.74
2023-06-04T12:02:56.143Z,29.56
2023-06-04T12:05:26.397Z,27.53
2023-06-04T12:07:56.006Z,27.37
2023-06-04T12:10:25.425Z,26.85
2023-06-04T12:12:57.117Z,26.43
2023-06-04T12:15:27.215Z,26.78
2023-06-04T12:17:56.023Z,25.82
2023-06-04T12:20:38.155Z,26.90
2023-06-04T12:23:07.494Z,28.68
2023-06-04T12:25:38.781Z,27.94
2023-06-04T12:28:07.476Z,28.11
2023-06-04T12:30:41.002Z,28.83
2023-06-04T12:33:09.812Z,28.96
2023-06-04T12:35:38.210Z,29.21
2023-06-04T12:38:10.496Z,28.88
2023-06-04T12:40:39.102Z,29.48
2023-06-04T12:43:08.379Z,29.27
2023-06-04T12:45:36.988Z,29.45
2023-06-04T12:48:07.449Z,29.45
2023-06-04T12:50:39.318Z,29.04
2023-06-04T12:53:07.794Z,30.45
2023-06-04T12:55:36.245Z,29.74
2023-06-04T12:58:04.742Z,29.95
2023-06-04T13:00:33.114Z,29.78
2023-06-04T13:03:01.618Z,29.88
2023-06-04T13:05:31.560Z,29.37
2023-06-04T13:08:00.139Z,29.97
2023-06-04T13:10:28.534Z,30.01
2023-06-04T13:12:56.969Z,30.03
2023-06-04T13:15:26.449Z,30.31
2023-06-04T13:17:54.924Z,30.78
2023-06-04T13:20:23.747Z,31.41
2023-06-04T13:22:53.521Z,31.65
2023-06-04T13:25:21.912Z,30.54
2023-06-04T13:27:51.345Z,30.86
2023-06-04T13:30:19.770Z,31.13
2023-06-04T13:32:48.623Z,32.30
2023-06-04T13:35:17.681Z,32.44
2023-06-04T13:37:46.105Z,32.15
2023-06-04T13:40:16.386Z,32.09
2023-06-04T13:42:44.998Z,32.27
2023-06-04T13:45:13.743Z,32.03
2023-06-04T13:47:42.257Z,31.86
2023-06-04T13:50:12.294Z,31.77
2023-06-04T13:52:40.844Z,31.63
2023-06-04T13:55:10.126Z,31.32
2023-06-04T13:57:40.332Z,31.55
2023-06-04T14:00:10.864Z,31.35
2023-06-04T14:02:39.419Z,31.22
2023-06-04T14:05:09.062Z,31.55
2023-06-04T14:07:37.468Z,31.79
2023-06-04T14:10:07.148Z,31.55
2023-06-04T14:12:36.390Z,31.59
2023-06-04T14:15:08.091Z,31.91
2023-06-04T14:17:36.734Z,31.70
2023-06-04T14:20:08.644Z,31.88
2023-06-04T14:22:37.351Z,31.80
2023-06-04T14:25:06.392Z,31.56
2023-06-04T14:27:34.893Z,31.93
2023-06-04T14:30:05.323Z,31.78
2023-06-04T14:32:35.209Z,31.93
2023-06-04T14:35:03.729Z,31.88
2023-06-04T14:37:32.219Z,31.90
2023-06-04T14:40:00.655Z,31.75
2023-06-04T14:42:29.123Z,32.05
2023-06-04T14:44:57.677Z,32.11
2023-06-04T14:47:27.724Z,32.09
2023-06-04T14:49:56.264Z,31.73
2023-06-04T14:52:24.821Z,31.88
2023-06-04T14:54:55.444Z,31.97
2023-06-04T14:57:24.271Z,32.01
2023-06-04T14:59:52.707Z,31.84
2023-06-04T15:02:21.850Z,31.46
2023-06-04T15:04:52.018Z,31.87
2023-06-04T15:07:20.660Z,31.79
2023-06-04T15:09:49.804Z,32.28
2023-06-04T15:12:20.702Z,32.42
2023-06-04T15:14:49.137Z,31.99
2023-06-04T15:17:17.940Z,32.08
2023-06-04T15:19:46.367Z,32.04
2023-06-04T15:22:16.477Z,31.87
2023-06-04T15:24:45.356Z,32.10
2023-06-04T15:27:13.805Z,31.88
2023-06-04T15:29:42.490Z,32.00
2023-06-04T15:32:10.919Z,31.92
2023-06-04T15:34:39.609Z,32.23
2023-06-04T15:37:08.260Z,32.09
2023-06-04T15:39:38.205Z,32.30
2023-06-04T15:42:08.052Z,32.35
2023-06-04T15:44:36.621Z,32.57
2023-06-04T15:47:05.493Z,32.47
2023-06-04T15:49:33.965Z,32.52
2023-06-04T15:52:02.562Z,32.48
2023-06-04T15:54:44.943Z,32.26
2023-06-04T15:57:16.884Z,32.28
2023-06-04T15:59:46.352Z,32.58
2023-06-04T16:02:15.033Z,32.69
2023-06-04T16:04:43.673Z,32.52
2023-06-04T16:07:12.162Z,32.41
2023-06-04T16:09:40.725Z,32.28
2023-06-04T16:12:09.664Z,32.35
2023-06-04T16:14:39.505Z,32.46
2023-06-04T16:17:08.321Z,32.14
2023-06-04T16:19:36.746Z,32.23
2023-06-04T16:22:05.314Z,32.68
2023-06-04T16:24:33.850Z,32.77
2023-06-04T16:27:02.398Z,32.84
2023-06-04T16:29:30.885Z,32.58
2023-06-04T16:32:01.054Z,32.23
2023-06-04T16:34:29.733Z,32.61
2023-06-04T16:36:58.457Z,32.61
2023-06-04T16:39:26.979Z,32.64
2023-06-04T16:41:59.288Z,32.66
2023-06-04T16:44:27.935Z,32.89
2023-06-04T16:46:56.670Z,32.66
2023-06-04T16:49:26.522Z,32.71
2023-06-04T16:51:55.106Z,32.25
2023-06-04T16:54:23.564Z,32.62
2023-06-04T16:56:52.526Z,32.48
2023-06-04T16:59:20.999Z,32.62
2023-06-04T17:01:49.543Z,32.93
2023-06-04T17:04:18.134Z,33.05
2023-06-04T17:06:47.942Z,32.78
2023-06-04T17:09:16.460Z,32.78
2023-06-04T17:11:45.116Z,32.96
2023-06-04T17:14:13.654Z,32.77
2023-06-04T17:16:42.104Z,32.20
2023-06-04T17:19:10.632Z,32.29
2023-06-04T17:21:39.266Z,32.64
2023-06-04T17:24:10.005Z,32.14
2023-06-04T17:26:38.670Z,32.09
2023-06-04T17:29:07.178Z,32.24
2023-06-04T17:31:35.615Z,32.26
2023-06-04T17:34:04.247Z,32.57
2023-06-04T17:36:33.056Z,31.99
2023-06-04T17:39:01.722Z,31.69
2023-06-04T17:41:31.528Z,31.46
2023-06-04T17:44:00.397Z,30.65
2023-06-04T17:46:28.895Z,30.71
2023-06-04T17:48:57.514Z,31.03
2023-06-04T17:51:26.064Z,31.22
2023-06-04T17:53:54.886Z,31.10
2023-06-04T17:56:23.512Z,31.11
2023-06-04T17:58:53.428Z,30.72
2023-06-04T18:01:22.250Z,31.71
2023-06-04T18:03:51.211Z,31.11
2023-06-04T18:06:19.731Z,30.75
2023-06-04T18:08:48.353Z,31.24
2023-06-04T18:11:16.867Z,30.39
2023-06-04T18:13:45.887Z,30.93
2023-06-04T18:16:16.969Z,30.26
2023-06-04T18:18:45.901Z,30.56
2023-06-04T18:21:14.471Z,30.54
2023-06-04T18:23:49.951Z,31.12
2023-06-04T18:26:18.571Z,31.01
2023-06-04T18:28:47.047Z,30.84
2023-06-04T18:31:17.020Z,30.74
2023-06-04T18:33:53.405Z,30.83
2023-06-04T18:36:21.862Z,31.16
2023-06-04T18:38:50.252Z,31.00
2023-06-04T18:41:19.366Z,30.48
2023-06-04T18:43:47.888Z,30.34
2023-06-04T18:46:17.803Z,30.20
2023-06-04T18:48:48.203Z,30.00
2023-06-04T18:51:16.681Z,29.83
2023-06-04T18:53:45.378Z,30.57
2023-06-04T18:56:13.879Z,29.56
2023-06-04T18:58:43.279Z,30.35
2023-06-04T19:01:12.199Z,30.72
2023-06-04T19:03:42.055Z,30.50
2023-06-04T19:06:11.126Z,30.14
2023-06-04T19:08:39.665Z,30.12
2023-06-04T19:11:09.316Z,30.53
2023-06-04T19:13:37.772Z,30.65
2023-06-04T19:16:07.402Z,30.63
2023-06-04T19:18:36.061Z,30.36
2023-06-04T19:21:05.908Z,29.99
2023-06-04T19:23:35.435Z,30.41
2023-06-04T19:26:03.871Z,30.36
2023-06-04T19:28:32.447Z,30.84
2023-06-04T19:31:01.039Z,30.51
2023-06-04T19:33:33.510Z,30.81
2023-06-04T19:36:02.376Z,30.51
2023-06-04T19:38:32.251Z,30.70
2023-06-04T19:41:02.496Z,30.22
2023-06-04T19:43:30.960Z,30.32
2023-06-04T19:46:02.862Z,30.10
2023-06-04T19:48:31.735Z,30.27
2023-06-04T19:51:00.183Z,30.11
2023-06-04T19:53:28.894Z,30.16
2023-06-04T19:55:58.724Z,30.50
2023-06-04T19:58:27.918Z,30.46
2023-06-04T20:00:57.001Z,30.00
2023-06-04T20:03:26.170Z,30.22
2023-06-04T20:05:55.994Z,29.80
2023-06-04T20:08:24.652Z,29.78
2023-06-04T20:10:53.529Z,29.96
2023-06-04T20:13:23.332Z,29.78
2023-06-04T20:15:51.787Z,29.91
2023-06-04T20:18:20.562Z,30.20
2023-06-04T20:20:52.965Z,29.73
2023-06-04T20:23:21.658Z,30.19
2023-06-04T20:25:50.291Z,30.04
2023-06-04T20:28:18.690Z,29.79
2023-06-04T20:30:48.725Z,29.69
2023-06-04T20:33:17.637Z,30.08
2023-06-04T20:35:46.307Z,29.83
2023-06-04T20:38:14.731Z,29.84
2023-06-04T20:40:43.205Z,30.22
2023-06-04T20:43:11.817Z,29.84
2023-06-04T20:45:40.188Z,30.14
2023-06-04T20:48:10.148Z,30.17
2023-06-04T20:50:38.648Z,29.80
2023-06-04T20:53:07.079Z,30.23
2023-06-04T20:55:36.395Z,29.91
2023-06-04T20:58:04.889Z,30.05
2023-06-04T21:00:33.806Z,30.02
2023-06-04T21:03:02.310Z,29.80
2023-06-04T21:05:32.234Z,29.87
2023-06-04T21:08:04.512Z,29.80
2023-06-04T21:10:33.196Z,29.95
2023-06-04T21:13:02.117Z,29.62
2023-06-04T21:15:30.638Z,30.04
2023-06-04T21:17:59.169Z,29.95
2023-06-04T21:20:27.647Z,29.83
2023-06-04T21:22:57.459Z,29.99
2023-06-04T21:25:25.981Z,30.27
2023-06-04T21:27:54.374Z,30.14
2023-06-04T21:30:22.756Z,29.73
2023-06-04T21:32:51.494Z,30.13
2023-06-04T21:35:20.233Z,29.92
2023-06-04T21:37:48.787Z,29.89
2023-06-04T21:40:18.590Z,30.09
2023-06-04T21:42:47.101Z,30.21
2023-06-04T21:45:16.399Z,30.18
2023-06-04T21:47:45.471Z,30.45
2023-06-04T21:50:14.179Z,30.38
2023-06-04T21:52:42.549Z,30.54
2023-06-04T21:55:11.233Z,30.48
2023-06-04T21:57:41.132Z,30.38
2023-06-04T22:00:12.689Z,30.49
2023-06-04T22:02:41.400Z,30.65
2023-06-04T22:05:10.884Z,30.82
2023-06-04T22:07:39.447Z,30.59
2023-06-04T22:10:10.096Z,30.71
2023-06-04T22:12:38.508Z,30.54
2023-06-04T22:15:10.048Z,30.60
2023-06-04T22:17:38.556Z,30.55
2023-06-04T22:20:09.215Z,30.65
2023-06-04T22:22:37.668Z,30.74
2023-06-04T22:25:06.712Z,31.06
2023-06-04T22:27:35.301Z,30.79
2023-06-04T22:30:03.903Z,30.92
2023-06-04T22:32:33.771Z,30.94
2023-06-04T22:35:02.191Z,31.15
2023-06-04T22:37:30.750Z,30.78
2023-06-04T22:40:00.497Z,30.84
2023-06-04T22:42:29.049Z,31.07
2023-06-04T22:44:57.829Z,31.15
2023-06-04T22:47:26.922Z,30.82
2023-06-04T22:49:56.964Z,31.06
2023-06-04T22:52:27.070Z,30.73
2023-06-04T22:54:55.812Z,31.10
2023-06-04T22:57:24.458Z,30.70
2023-06-04T22:59:53.352Z,31.11
2023-06-04T23:02:21.999Z,30.93
2023-06-04T23:04:50.488Z,31.09
2023-06-04T23:07:20.362Z,31.10
2023-06-04T23:09:49.183Z,31.04
2023-06-04T23:12:17.823Z,30.89
2023-06-04T23:14:47.023Z,31.04
2023-06-04T23:17:15.771Z,30.92
2023-06-04T23:19:44.253Z,30.88
2023-06-04T23:22:12.965Z,30.75
2023-06-04T23:24:42.874Z,30.75
2023-06-04T23:27:11.604Z,30.97
2023-06-04T23:29:40.052Z,31.05
2023-06-04T23:32:08.650Z,30.97
2023-06-04T23:34:37.194Z,30.98
2023-06-04T23:37:06.839Z,30.75
2023-06-04T23:39:35.365Z,31.01
2023-06-04T23:42:05.587Z,30.83
2023-06-04T23:44:34.058Z,31.04
2023-06-04T23:47:02.580Z,30.89
2023-06-04T23:49:31.043Z,30.98
2023-06-04T23:51:59.963Z,30.90
2023-06-04T23:54:28.432Z,30.84
2023-06-04T23:56:56.839Z,31.54
2023-06-04T23:59:27.549Z,31.33
